sensor_id;sensor_type;location;lat;lon;timestamp;P1;durP1;ratioP1;P2;durP2;ratioP2
41687;SDS011;27371;42.686;23.362;2023-03-01T00:01:10;69.35;;;44.05;;
41687;SDS011;27371;42.686;23.362;2023-03-01T00:03:37;54.83;;;39.45;;
41687;SDS011;27371;42.686;23.362;2023-03-01T00:06:03;32.30;;;28.52;;
41687;SDS011;27371;42.686;23.362;2023-03-01T00:08:29;28.83;;;24.13;;
41687;SDS011;27371;42.686;23.362;2023-03-01T00:13:30;17.25;;;15.45;;
41687;SDS011;27371;42.686;23.362;2023-03-01T00:15:56;17.70;;;15.57;;
41687;SDS011;27371;42.686;23.362;2023-03-01T00:18:21;12.70;;;10.27;;
41687;SDS011;27371;42.686;23.362;2023-03-01T00:20:51;11.63;;;7.43;;
41687;SDS011;27371;42.686;23.362;2023-03-01T00:23:18;11.15;;;9.02;;
41687;SDS011;27371;42.686;23.362;2023-03-01T00:25:43;10.68;;;8.00;;
41687;SDS011;27371;42.686;23.362;2023-03-01T00:28:09;14.45;;;9.57;;
41687;SDS011;27371;42.686;23.362;2023-03-01T00:30:34;32.00;;;16.33;;
41687;SDS011;27371;42.686;23.362;2023-03-01T00:33:00;49.42;;;25.80;;
41687;SDS011;27371;42.686;23.362;2023-03-01T00:35:25;53.22;;;24.92;;
41687;SDS011;27371;42.686;23.362;2023-03-01T00:37:51;40.03;;;17.70;;
41687;SDS011;27371;42.686;23.362;2023-03-01T00:40:25;39.45;;;17.27;;
41687;SDS011;27371;42.686;23.362;2023-03-01T00:42:52;23.42;;;12.48;;
41687;SDS011;27371;42.686;23.362;2023-03-01T00:45:18;19.00;;;9.70;;
41687;SDS011;27371;42.686;23.362;2023-03-01T00:47:43;14.10;;;7.53;;
41687;SDS011;27371;42.686;23.362;2023-03-01T00:50:09;9.45;;;5.05;;
41687;SDS011;27371;42.686;23.362;2023-03-01T00:52:36;8.57;;;4.15;;
41687;SDS011;27371;42.686;23.362;2023-03-01T00:55:01;7.20;;;3.95;;
41687;SDS011;27371;42.686;23.362;2023-03-01T00:57:27;4.78;;;3.45;;
41687;SDS011;27371;42.686;23.362;2023-03-01T00:59:52;4.35;;;2.97;;
41687;SDS011;27371;42.686;23.362;2023-03-01T01:02:18;3.63;;;2.70;;
41687;SDS011;27371;42.686;23.362;2023-03-01T01:04:44;5.55;;;2.67;;
41687;SDS011;27371;42.686;23.362;2023-03-01T01:07:10;5.75;;;2.33;;
41687;SDS011;27371;42.686;23.362;2023-03-01T01:09:36;2.97;;;2.05;;
41687;SDS011;27371;42.686;23.362;2023-03-01T01:12:02;2.75;;;1.90;;
41687;SDS011;27371;42.686;23.362;2023-03-01T01:14:28;5.05;;;2.42;;
41687;SDS011;27371;42.686;23.362;2023-03-01T01:16:54;2.65;;;1.75;;
41687;SDS011;27371;42.686;23.362;2023-03-01T01:19:19;2.45;;;1.98;;
41687;SDS011;27371;42.686;23.362;2023-03-01T01:21:46;3.03;;;2.10;;
41687;SDS011;27371;42.686;23.362;2023-03-01T01:24:13;2.35;;;1.70;;
41687;SDS011;27371;42.686;23.362;2023-03-01T01:26:39;2.72;;;1.95;;
41687;SDS011;27371;42.686;23.362;2023-03-01T01:31:49;2.28;;;1.70;;
41687;SDS011;27371;42.686;23.362;2023-03-01T01:34:16;2.78;;;1.80;;
41687;SDS011;27371;42.686;23.362;2023-03-01T01:36:47;2.17;;;1.50;;
41687;SDS011;27371;42.686;23.362;2023-03-01T01:39:13;1.85;;;1.42;;
41687;SDS011;27371;42.686;23.362;2023-03-01T01:41:40;1.73;;;1.30;;
41687;SDS011;27371;42.686;23.362;2023-03-01T01:44:11;1.70;;;1.35;;
41687;SDS011;27371;42.686;23.362;2023-03-01T01:50:16;2.80;;;1.63;;
41687;SDS011;27371;42.686;23.362;2023-03-01T01:52:40;2.20;;;1.50;;
41687;SDS011;27371;42.686;23.362;2023-03-01T01:55:10;1.70;;;1.23;;
41687;SDS011;27371;42.686;23.362;2023-03-01T01:57:48;1.65;;;1.30;;
41687;SDS011;27371;42.686;23.362;2023-03-01T02:00:19;1.48;;;1.35;;
41687;SDS011;27371;42.686;23.362;2023-03-01T02:02:56;3.47;;;1.90;;
41687;SDS011;27371;42.686;23.362;2023-03-01T02:08:33;2.78;;;1.67;;
41687;SDS011;27371;42.686;23.362;2023-03-01T02:11:02;1.10;;;1.00;;
41687;SDS011;27371;42.686;23.362;2023-03-01T02:13:34;1.42;;;1.10;;
41687;SDS011;27371;42.686;23.362;2023-03-01T02:16:04;2.08;;;0.90;;
41687;SDS011;27371;42.686;23.362;2023-03-01T02:18:34;1.05;;;0.90;;
41687;SDS011;27371;42.686;23.362;2023-03-01T02:23:41;1.55;;;1.10;;
41687;SDS011;27371;42.686;23.362;2023-03-01T02:28:42;1.73;;;1.10;;
41687;SDS011;27371;42.686;23.362;2023-03-01T02:31:09;2.13;;;1.30;;
41687;SDS011;27371;42.686;23.362;2023-03-01T02:33:54;1.95;;;1.52;;
41687;SDS011;27371;42.686;23.362;2023-03-01T02:36:22;1.70;;;1.55;;
41687;SDS011;27371;42.686;23.362;2023-03-01T02:38:57;2.20;;;1.60;;
41687;SDS011;27371;42.686;23.362;2023-03-01T02:41:24;2.38;;;1.40;;
41687;SDS011;27371;42.686;23.362;2023-03-01T02:43:53;1.90;;;1.45;;
41687;SDS011;27371;42.686;23.362;2023-03-01T02:46:23;1.73;;;1.30;;
41687;SDS011;27371;42.686;23.362;2023-03-01T02:48:57;2.08;;;1.48;;
41687;SDS011;27371;42.686;23.362;2023-03-01T02:54:18;2.50;;;1.48;;
41687;SDS011;27371;42.686;23.362;2023-03-01T02:56:45;1.90;;;1.40;;
41687;SDS011;27371;42.686;23.362;2023-03-01T02:59:15;1.80;;;1.42;;
41687;SDS011;27371;42.686;23.362;2023-03-01T03:01:43;2.08;;;1.38;;
41687;SDS011;27371;42.686;23.362;2023-03-01T03:04:09;3.83;;;1.83;;
41687;SDS011;27371;42.686;23.362;2023-03-01T03:06:36;1.77;;;1.50;;
41687;SDS011;27371;42.686;23.362;2023-03-01T03:09:02;3.25;;;2.05;;
41687;SDS011;27371;42.686;23.362;2023-03-01T03:11:29;3.58;;;2.13;;
41687;SDS011;27371;42.686;23.362;2023-03-01T03:13:55;2.92;;;2.33;;
41687;SDS011;27371;42.686;23.362;2023-03-01T03:16:22;4.65;;;2.45;;
41687;SDS011;27371;42.686;23.362;2023-03-01T03:18:49;3.08;;;2.20;;
41687;SDS011;27371;42.686;23.362;2023-03-01T03:21:15;3.47;;;2.95;;
41687;SDS011;27371;42.686;23.362;2023-03-01T03:23:41;2.90;;;2.60;;
41687;SDS011;27371;42.686;23.362;2023-03-01T03:26:07;3.30;;;2.50;;
41687;SDS011;27371;42.686;23.362;2023-03-01T03:28:33;6.00;;;2.75;;
41687;SDS011;27371;42.686;23.362;2023-03-01T03:31:00;2.80;;;2.33;;
41687;SDS011;27371;42.686;23.362;2023-03-01T03:33:32;2.10;;;1.63;;
41687;SDS011;27371;42.686;23.362;2023-03-01T03:35:58;2.42;;;1.92;;
41687;SDS011;27371;42.686;23.362;2023-03-01T03:38:24;2.58;;;2.00;;
41687;SDS011;27371;42.686;23.362;2023-03-01T03:40:52;3.78;;;2.83;;
41687;SDS011;27371;42.686;23.362;2023-03-01T03:43:29;3.30;;;2.00;;
41687;SDS011;27371;42.686;23.362;2023-03-01T03:45:57;2.80;;;2.30;;
41687;SDS011;27371;42.686;23.362;2023-03-01T03:48:23;2.80;;;2.28;;
41687;SDS011;27371;42.686;23.362;2023-03-01T03:50:50;3.40;;;2.70;;
41687;SDS011;27371;42.686;23.362;2023-03-01T03:53:20;3.20;;;2.65;;
41687;SDS011;27371;42.686;23.362;2023-03-01T03:55:47;4.32;;;3.45;;
41687;SDS011;27371;42.686;23.362;2023-03-01T03:58:16;4.47;;;3.58;;
41687;SDS011;27371;42.686;23.362;2023-03-01T04:00:45;5.00;;;4.10;;
41687;SDS011;27371;42.686;23.362;2023-03-01T04:03:12;5.10;;;3.67;;
41687;SDS011;27371;42.686;23.362;2023-03-01T04:05:39;4.80;;;3.85;;
41687;SDS011;27371;42.686;23.362;2023-03-01T04:08:06;4.60;;;2.40;;
41687;SDS011;27371;42.686;23.362;2023-03-01T04:10:42;2.70;;;2.28;;
41687;SDS011;27371;42.686;23.362;2023-03-01T04:13:14;2.70;;;1.95;;
41687;SDS011;27371;42.686;23.362;2023-03-01T04:15:41;2.40;;;1.85;;
41687;SDS011;27371;42.686;23.362;2023-03-01T04:18:08;2.60;;;2.10;;
41687;SDS011;27371;42.686;23.362;2023-03-01T04:20:37;3.88;;;2.42;;
41687;SDS011;27371;42.686;23.362;2023-03-01T04:23:10;3.97;;;2.70;;
41687;SDS011;27371;42.686;23.362;2023-03-01T04:25:49;2.85;;;2.30;;
41687;SDS011;27371;42.686;23.362;2023-03-01T04:28:32;3.00;;;2.42;;
41687;SDS011;27371;42.686;23.362;2023-03-01T04:31:02;2.78;;;2.30;;
41687;SDS011;27371;42.686;23.362;2023-03-01T04:33:59;2.72;;;2.03;;
41687;SDS011;27371;42.686;23.362;2023-03-01T04:36:25;2.65;;;2.13;;
41687;SDS011;27371;42.686;23.362;2023-03-01T04:38:52;3.95;;;2.17;;
41687;SDS011;27371;42.686;23.362;2023-03-01T04:41:19;3.65;;;2.05;;
41687;SDS011;27371;42.686;23.362;2023-03-01T04:43:46;2.88;;;1.80;;
41687;SDS011;27371;42.686;23.362;2023-03-01T04:46:15;3.45;;;2.13;;
41687;SDS011;27371;42.686;23.362;2023-03-01T04:48:42;2.80;;;2.17;;
41687;SDS011;27371;42.686;23.362;2023-03-01T04:51:09;2.55;;;2.00;;
41687;SDS011;27371;42.686;23.362;2023-03-01T04:53:38;4.53;;;2.85;;
41687;SDS011;27371;42.686;23.362;2023-03-01T04:56:05;3.97;;;3.10;;
41687;SDS011;27371;42.686;23.362;2023-03-01T04:58:31;4.13;;;3.03;;
41687;SDS011;27371;42.686;23.362;2023-03-01T05:00:57;3.70;;;2.90;;
41687;SDS011;27371;42.686;23.362;2023-03-01T05:03:22;3.70;;;3.10;;
41687;SDS011;27371;42.686;23.362;2023-03-01T05:05:49;4.18;;;2.92;;
41687;SDS011;27371;42.686;23.362;2023-03-01T05:08:16;5.03;;;2.88;;
41687;SDS011;27371;42.686;23.362;2023-03-01T05:10:49;3.75;;;2.97;;
41687;SDS011;27371;42.686;23.362;2023-03-01T05:13:17;4.47;;;3.03;;
41687;SDS011;27371;42.686;23.362;2023-03-01T05:15:55;4.30;;;3.00;;
41687;SDS011;27371;42.686;23.362;2023-03-01T05:18:25;4.65;;;3.85;;
41687;SDS011;27371;42.686;23.362;2023-03-01T05:21:01;4.80;;;3.80;;
41687;SDS011;27371;42.686;23.362;2023-03-01T05:23:32;6.72;;;4.82;;
41687;SDS011;27371;42.686;23.362;2023-03-01T05:25:59;6.63;;;4.72;;
41687;SDS011;27371;42.686;23.362;2023-03-01T05:28:26;7.03;;;4.38;;
41687;SDS011;27371;42.686;23.362;2023-03-01T05:30:53;5.85;;;4.85;;
41687;SDS011;27371;42.686;23.362;2023-03-01T05:33:19;5.50;;;4.65;;
41687;SDS011;27371;42.686;23.362;2023-03-01T05:35:47;4.63;;;3.70;;
41687;SDS011;27371;42.686;23.362;2023-03-01T05:38:13;5.47;;;4.60;;
41687;SDS011;27371;42.686;23.362;2023-03-01T05:40:43;7.55;;;4.70;;
41687;SDS011;27371;42.686;23.362;2023-03-01T05:43:11;4.68;;;3.50;;
41687;SDS011;27371;42.686;23.362;2023-03-01T05:45:38;5.10;;;3.90;;
41687;SDS011;27371;42.686;23.362;2023-03-01T05:48:04;5.28;;;4.32;;
41687;SDS011;27371;42.686;23.362;2023-03-01T05:50:35;4.47;;;3.35;;
41687;SDS011;27371;42.686;23.362;2023-03-01T05:53:03;4.55;;;2.95;;
41687;SDS011;27371;42.686;23.362;2023-03-01T05:55:31;3.63;;;2.90;;
41687;SDS011;27371;42.686;23.362;2023-03-01T05:58:00;4.40;;;2.80;;
41687;SDS011;27371;42.686;23.362;2023-03-01T06:00:27;3.75;;;2.83;;
41687;SDS011;27371;42.686;23.362;2023-03-01T06:02:55;3.90;;;2.95;;
41687;SDS011;27371;42.686;23.362;2023-03-01T06:05:21;3.35;;;2.65;;
41687;SDS011;27371;42.686;23.362;2023-03-01T06:07:47;3.40;;;2.60;;
41687;SDS011;27371;42.686;23.362;2023-03-01T06:10:13;4.97;;;2.55;;
41687;SDS011;27371;42.686;23.362;2023-03-01T06:12:40;3.63;;;2.45;;
41687;SDS011;27371;42.686;23.362;2023-03-01T06:15:07;4.60;;;2.83;;
41687;SDS011;27371;42.686;23.362;2023-03-01T06:17:37;3.60;;;2.45;;
41687;SDS011;27371;42.686;23.362;2023-03-01T06:20:07;4.70;;;2.80;;
41687;SDS011;27371;42.686;23.362;2023-03-01T06:22:34;3.33;;;2.10;;
41687;SDS011;27371;42.686;23.362;2023-03-01T06:25:00;2.90;;;2.05;;
41687;SDS011;27371;42.686;23.362;2023-03-01T06:27:25;3.80;;;2.60;;
41687;SDS011;27371;42.686;23.362;2023-03-01T06:29:51;4.22;;;2.20;;
41687;SDS011;27371;42.686;23.362;2023-03-01T06:32:16;5.45;;;2.30;;
41687;SDS011;27371;42.686;23.362;2023-03-01T06:34:42;3.25;;;2.25;;
41687;SDS011;27371;42.686;23.362;2023-03-01T06:37:07;6.32;;;1.90;;
41687;SDS011;27371;42.686;23.362;2023-03-01T06:39:33;4.70;;;1.98;;
41687;SDS011;27371;42.686;23.362;2023-03-01T06:41:59;3.40;;;2.20;;
41687;SDS011;27371;42.686;23.362;2023-03-01T06:44:25;4.40;;;2.00;;
41687;SDS011;27371;42.686;23.362;2023-03-01T06:46:51;3.17;;;2.03;;
41687;SDS011;27371;42.686;23.362;2023-03-01T06:49:16;3.75;;;2.28;;
41687;SDS011;27371;42.686;23.362;2023-03-01T06:51:43;2.85;;;1.90;;
41687;SDS011;27371;42.686;23.362;2023-03-01T06:54:08;3.35;;;1.80;;
41687;SDS011;27371;42.686;23.362;2023-03-01T06:56:34;3.67;;;2.10;;
41687;SDS011;27371;42.686;23.362;2023-03-01T06:59:00;3.67;;;2.55;;
41687;SDS011;27371;42.686;23.362;2023-03-01T07:01:29;6.53;;;2.83;;
41687;SDS011;27371;42.686;23.362;2023-03-01T07:03:55;3.83;;;2.80;;
41687;SDS011;27371;42.686;23.362;2023-03-01T07:06:21;3.45;;;2.65;;
41687;SDS011;27371;42.686;23.362;2023-03-01T07:08:47;3.70;;;2.63;;
41687;SDS011;27371;42.686;23.362;2023-03-01T07:11:12;4.32;;;2.20;;
41687;SDS011;27371;42.686;23.362;2023-03-01T07:13:38;6.28;;;2.28;;
41687;SDS011;27371;42.686;23.362;2023-03-01T07:16:04;4.60;;;2.65;;
41687;SDS011;27371;42.686;23.362;2023-03-01T07:18:30;5.47;;;2.17;;
41687;SDS011;27371;42.686;23.362;2023-03-01T07:20:55;2.28;;;1.80;;
41687;SDS011;27371;42.686;23.362;2023-03-01T07:23:21;3.78;;;2.13;;
41687;SDS011;27371;42.686;23.362;2023-03-01T07:25:53;4.63;;;2.28;;
41687;SDS011;27371;42.686;23.362;2023-03-01T07:28:19;4.55;;;2.00;;
41687;SDS011;27371;42.686;23.362;2023-03-01T07:30:45;5.47;;;1.75;;
41687;SDS011;27371;42.686;23.362;2023-03-01T07:33:10;2.75;;;1.98;;
41687;SDS011;27371;42.686;23.362;2023-03-01T07:35:36;4.18;;;1.98;;
41687;SDS011;27371;42.686;23.362;2023-03-01T07:38:01;3.20;;;1.70;;
41687;SDS011;27371;42.686;23.362;2023-03-01T07:40:27;4.20;;;1.90;;
41687;SDS011;27371;42.686;23.362;2023-03-01T07:42:56;2.65;;;1.52;;
41687;SDS011;27371;42.686;23.362;2023-03-01T07:45:22;3.67;;;1.83;;
41687;SDS011;27371;42.686;23.362;2023-03-01T07:47:49;5.57;;;1.85;;
41687;SDS011;27371;42.686;23.362;2023-03-01T07:50:15;2.78;;;1.60;;
41687;SDS011;27371;42.686;23.362;2023-03-01T07:52:41;4.07;;;1.40;;
41687;SDS011;27371;42.686;23.362;2023-03-01T07:55:06;7.07;;;1.33;;
41687;SDS011;27371;42.686;23.362;2023-03-01T07:57:32;2.55;;;1.45;;
41687;SDS011;27371;42.686;23.362;2023-03-01T07:59:58;2.92;;;1.65;;
41687;SDS011;27371;42.686;23.362;2023-03-01T08:02:24;2.78;;;1.30;;
41687;SDS011;27371;42.686;23.362;2023-03-01T08:04:50;2.97;;;1.65;;
41687;SDS011;27371;42.686;23.362;2023-03-01T08:07:19;2.42;;;1.30;;
41687;SDS011;27371;42.686;23.362;2023-03-01T08:09:46;3.35;;;1.70;;
41687;SDS011;27371;42.686;23.362;2023-03-01T08:12:12;4.55;;;1.60;;
41687;SDS011;27371;42.686;23.362;2023-03-01T08:14:39;4.00;;;1.35;;
41687;SDS011;27371;42.686;23.362;2023-03-01T08:17:13;2.10;;;1.10;;
41687;SDS011;27371;42.686;23.362;2023-03-01T08:19:39;3.00;;;1.40;;
41687;SDS011;27371;42.686;23.362;2023-03-01T08:22:05;3.75;;;1.83;;
41687;SDS011;27371;42.686;23.362;2023-03-01T08:24:31;3.17;;;1.38;;
41687;SDS011;27371;42.686;23.362;2023-03-01T08:26:57;4.00;;;2.00;;
41687;SDS011;27371;42.686;23.362;2023-03-01T08:29:22;2.83;;;1.70;;
41687;SDS011;27371;42.686;23.362;2023-03-01T08:31:49;3.83;;;1.88;;
41687;SDS011;27371;42.686;23.362;2023-03-01T08:34:16;2.95;;;1.45;;
41687;SDS011;27371;42.686;23.362;2023-03-01T08:36:44;3.53;;;1.40;;
41687;SDS011;27371;42.686;23.362;2023-03-01T08:39:11;3.10;;;1.50;;
41687;SDS011;27371;42.686;23.362;2023-03-01T08:41:38;2.50;;;1.90;;
41687;SDS011;27371;42.686;23.362;2023-03-01T08:44:04;3.08;;;1.55;;
41687;SDS011;27371;42.686;23.362;2023-03-01T08:46:33;4.63;;;1.50;;
41687;SDS011;27371;42.686;23.362;2023-03-01T08:49:03;1.85;;;1.10;;
41687;SDS011;27371;42.686;23.362;2023-03-01T08:51:30;2.17;;;1.63;;
41687;SDS011;27371;42.686;23.362;2023-03-01T08:54:01;6.13;;;1.88;;
41687;SDS011;27371;42.686;23.362;2023-03-01T08:56:31;3.33;;;1.42;;
41687;SDS011;27371;42.686;23.362;2023-03-01T08:58:57;4.15;;;2.10;;
41687;SDS011;27371;42.686;23.362;2023-03-01T09:01:23;1.77;;;1.35;;
41687;SDS011;27371;42.686;23.362;2023-03-01T09:03:49;2.40;;;1.35;;
41687;SDS011;27371;42.686;23.362;2023-03-01T09:06:14;4.32;;;1.60;;
41687;SDS011;27371;42.686;23.362;2023-03-01T09:08:41;2.55;;;1.40;;
41687;SDS011;27371;42.686;23.362;2023-03-01T09:11:10;1.92;;;1.35;;
41687;SDS011;27371;42.686;23.362;2023-03-01T09:13:37;2.25;;;1.00;;
41687;SDS011;27371;42.686;23.362;2023-03-01T09:16:04;4.80;;;1.40;;
41687;SDS011;27371;42.686;23.362;2023-03-01T09:18:31;4.53;;;1.30;;
41687;SDS011;27371;42.686;23.362;2023-03-01T09:21:01;1.90;;;1.10;;
41687;SDS011;27371;42.686;23.362;2023-03-01T09:23:40;3.40;;;1.40;;
41687;SDS011;27371;42.686;23.362;2023-03-01T09:26:11;2.53;;;1.27;;
41687;SDS011;27371;42.686;23.362;2023-03-01T09:28:41;2.08;;;1.17;;
41687;SDS011;27371;42.686;23.362;2023-03-01T09:31:07;1.63;;;1.20;;
41687;SDS011;27371;42.686;23.362;2023-03-01T09:33:33;2.00;;;1.30;;
41687;SDS011;27371;42.686;23.362;2023-03-01T09:36:04;5.43;;;1.50;;
41687;SDS011;27371;42.686;23.362;2023-03-01T09:38:32;1.92;;;1.38;;
41687;SDS011;27371;42.686;23.362;2023-03-01T09:40:58;2.80;;;1.30;;
41687;SDS011;27371;42.686;23.362;2023-03-01T09:46:05;2.38;;;1.23;;
41687;SDS011;27371;42.686;23.362;2023-03-01T09:48:41;3.72;;;1.00;;
41687;SDS011;27371;42.686;23.362;2023-03-01T09:51:17;1.75;;;1.00;;
41687;SDS011;27371;42.686;23.362;2023-03-01T09:53:47;3.38;;;0.75;;
41687;SDS011;27371;42.686;23.362;2023-03-01T09:56:16;3.22;;;0.85;;
41687;SDS011;27371;42.686;23.362;2023-03-01T09:59:38;1.10;;;0.80;;
41687;SDS011;27371;42.686;23.362;2023-03-01T10:01:49;1.60;;;0.70;;
41687;SDS011;27371;42.686;23.362;2023-03-01T10:04:45;3.58;;;0.63;;
41687;SDS011;27371;42.686;23.362;2023-03-01T10:09:45;3.10;;;0.80;;
41687;SDS011;27371;42.686;23.362;2023-03-01T10:12:12;1.75;;;1.00;;
41687;SDS011;27371;42.686;23.362;2023-03-01T10:20:22;2.45;;;0.80;;
41687;SDS011;27371;42.686;23.362;2023-03-01T10:22:50;3.83;;;1.17;;
41687;SDS011;27371;42.686;23.362;2023-03-01T10:28:25;1.45;;;0.88;;
41687;SDS011;27371;42.686;23.362;2023-03-01T10:30:56;3.45;;;1.73;;
41687;SDS011;27371;42.686;23.362;2023-03-01T10:33:25;3.58;;;1.08;;
41687;SDS011;27371;42.686;23.362;2023-03-01T10:35:51;1.80;;;1.10;;
41687;SDS011;27371;42.686;23.362;2023-03-01T10:38:17;1.88;;;1.00;;
41687;SDS011;27371;42.686;23.362;2023-03-01T10:40:55;3.50;;;1.35;;
41687;SDS011;27371;42.686;23.362;2023-03-01T10:43:25;2.15;;;0.95;;
41687;SDS011;27371;42.686;23.362;2023-03-01T10:45:57;1.10;;;0.63;;
41687;SDS011;27371;42.686;23.362;2023-03-01T10:48:26;0.80;;;0.60;;
41687;SDS011;27371;42.686;23.362;2023-03-01T10:53:29;0.93;;;0.40;;
41687;SDS011;27371;42.686;23.362;2023-03-01T10:56:00;1.60;;;0.55;;
41687;SDS011;27371;42.686;23.362;2023-03-01T10:58:31;1.05;;;0.73;;
41687;SDS011;27371;42.686;23.362;2023-03-01T11:00:59;1.35;;;0.85;;
41687;SDS011;27371;42.686;23.362;2023-03-01T11:03:33;2.38;;;0.80;;
41687;SDS011;27371;42.686;23.362;2023-03-01T11:08:39;2.28;;;0.70;;
41687;SDS011;27371;42.686;23.362;2023-03-01T11:13:57;2.35;;;0.70;;
41687;SDS011;27371;42.686;23.362;2023-03-01T11:16:35;1.25;;;0.80;;
41687;SDS011;27371;42.686;23.362;2023-03-01T11:21:34;3.47;;;1.10;;
41687;SDS011;27371;42.686;23.362;2023-03-01T11:24:04;2.90;;;0.95;;
41687;SDS011;27371;42.686;23.362;2023-03-01T11:26:34;1.25;;;0.65;;
41687;SDS011;27371;42.686;23.362;2023-03-01T11:29:06;4.65;;;0.82;;
41687;SDS011;27371;42.686;23.362;2023-03-01T11:31:41;1.42;;;0.80;;
41687;SDS011;27371;42.686;23.362;2023-03-01T11:34:12;1.52;;;0.98;;
41687;SDS011;27371;42.686;23.362;2023-03-01T11:44:39;1.67;;;0.40;;
41687;SDS011;27371;42.686;23.362;2023-03-01T11:47:14;1.52;;;0.90;;
41687;SDS011;27371;42.686;23.362;2023-03-01T12:10:02;2.20;;;1.33;;
41687;SDS011;27371;42.686;23.362;2023-03-01T12:20:43;4.03;;;1.67;;
41687;SDS011;27371;42.686;23.362;2023-03-01T12:23:38;2.58;;;1.88;;
41687;SDS011;27371;42.686;23.362;2023-03-01T12:26:35;2.35;;;1.70;;
41687;SDS011;27371;42.686;23.362;2023-03-01T12:29:34;2.40;;;1.70;;
41687;SDS011;27371;42.686;23.362;2023-03-01T12:46:23;5.20;;;2.42;;
41687;SDS011;27371;42.686;23.362;2023-03-01T12:51:51;4.10;;;2.20;;
41687;SDS011;27371;42.686;23.362;2023-03-01T12:54:26;3.83;;;1.52;;
41687;SDS011;27371;42.686;23.362;2023-03-01T13:02:58;6.25;;;3.03;;
41687;SDS011;27371;42.686;23.362;2023-03-01T13:11:22;3.60;;;1.52;;
41687;SDS011;27371;42.686;23.362;2023-03-01T13:13:48;6.35;;;1.67;;
41687;SDS011;27371;42.686;23.362;2023-03-01T13:16:38;2.28;;;1.40;;
41687;SDS011;27371;42.686;23.362;2023-03-01T13:19:28;2.30;;;1.27;;
41687;SDS011;27371;42.686;23.362;2023-03-01T13:21:55;6.32;;;1.30;;
41687;SDS011;27371;42.686;23.362;2023-03-01T13:24:24;2.22;;;1.25;;
41687;SDS011;27371;42.686;23.362;2023-03-01T13:32:28;5.43;;;1.58;;
41687;SDS011;27371;42.686;23.362;2023-03-01T13:34:58;3.03;;;1.70;;
41687;SDS011;27371;42.686;23.362;2023-03-01T13:37:35;3.72;;;1.70;;
41687;SDS011;27371;42.686;23.362;2023-03-01T13:42:53;3.95;;;1.90;;
41687;SDS011;27371;42.686;23.362;2023-03-01T13:45:32;7.13;;;2.15;;
41687;SDS011;27371;42.686;23.362;2023-03-01T13:48:01;5.05;;;1.63;;
41687;SDS011;27371;42.686;23.362;2023-03-01T13:50:33;5.70;;;2.15;;
41687;SDS011;27371;42.686;23.362;2023-03-01T13:53:03;2.60;;;1.55;;
41687;SDS011;27371;42.686;23.362;2023-03-01T13:55:40;5.70;;;1.90;;
41687;SDS011;27371;42.686;23.362;2023-03-01T14:01:00;3.67;;;1.63;;
41687;SDS011;27371;42.686;23.362;2023-03-01T14:03:28;5.00;;;1.60;;
41687;SDS011;27371;42.686;23.362;2023-03-01T14:06:07;2.45;;;1.50;;
41687;SDS011;27371;42.686;23.362;2023-03-01T14:08:44;3.60;;;1.90;;
41687;SDS011;27371;42.686;23.362;2023-03-01T14:11:20;5.72;;;2.03;;
41687;SDS011;27371;42.686;23.362;2023-03-01T14:19:35;3.10;;;1.67;;
41687;SDS011;27371;42.686;23.362;2023-03-01T14:24:50;5.63;;;2.38;;
41687;SDS011;27371;42.686;23.362;2023-03-01T14:27:20;5.63;;;1.85;;
41687;SDS011;27371;42.686;23.362;2023-03-01T14:29:58;3.70;;;1.73;;
41687;SDS011;27371;42.686;23.362;2023-03-01T14:32:29;3.05;;;1.98;;
41687;SDS011;27371;42.686;23.362;2023-03-01T14:34:57;5.22;;;2.17;;
41687;SDS011;27371;42.686;23.362;2023-03-01T14:39:55;3.03;;;1.90;;
41687;SDS011;27371;42.686;23.362;2023-03-01T14:42:23;4.57;;;2.13;;
41687;SDS011;27371;42.686;23.362;2023-03-01T14:44:52;4.95;;;1.98;;
41687;SDS011;27371;42.686;23.362;2023-03-01T14:47:27;7.20;;;1.90;;
41687;SDS011;27371;42.686;23.362;2023-03-01T14:49:57;4.28;;;2.00;;
41687;SDS011;27371;42.686;23.362;2023-03-01T14:52:36;4.45;;;2.08;;
41687;SDS011;27371;42.686;23.362;2023-03-01T14:55:05;6.57;;;1.70;;
41687;SDS011;27371;42.686;23.362;2023-03-01T14:57:42;5.57;;;2.00;;
41687;SDS011;27371;42.686;23.362;2023-03-01T15:00:19;5.30;;;1.80;;
41687;SDS011;27371;42.686;23.362;2023-03-01T15:02:50;2.92;;;1.80;;
41687;SDS011;27371;42.686;23.362;2023-03-01T15:05:18;5.68;;;2.28;;
41687;SDS011;27371;42.686;23.362;2023-03-01T15:07:54;5.85;;;1.75;;
41687;SDS011;27371;42.686;23.362;2023-03-01T15:10:28;3.70;;;1.92;;
41687;SDS011;27371;42.686;23.362;2023-03-01T15:15:35;6.28;;;2.20;;
41687;SDS011;27371;42.686;23.362;2023-03-01T15:18:13;5.53;;;1.95;;
41687;SDS011;27371;42.686;23.362;2023-03-01T15:20:48;9.10;;;1.90;;
41687;SDS011;27371;42.686;23.362;2023-03-01T15:23:21;4.20;;;2.00;;
41687;SDS011;27371;42.686;23.362;2023-03-01T15:25:47;6.28;;;2.30;;
41687;SDS011;27371;42.686;23.362;2023-03-01T15:28:21;6.10;;;2.28;;
41687;SDS011;27371;42.686;23.362;2023-03-01T15:30:52;7.15;;;2.60;;
41687;SDS011;27371;42.686;23.362;2023-03-01T15:35:51;5.28;;;2.28;;
41687;SDS011;27371;42.686;23.362;2023-03-01T15:40:51;6.13;;;2.40;;
41687;SDS011;27371;42.686;23.362;2023-03-01T15:46:02;5.80;;;2.10;;
41687;SDS011;27371;42.686;23.362;2023-03-01T15:48:29;5.32;;;2.20;;
41687;SDS011;27371;42.686;23.362;2023-03-01T15:50:59;5.93;;;2.75;;
41687;SDS011;27371;42.686;23.362;2023-03-01T15:53:26;5.95;;;3.40;;
41687;SDS011;27371;42.686;23.362;2023-03-01T15:55:53;3.75;;;2.25;;
41687;SDS011;27371;42.686;23.362;2023-03-01T15:58:20;6.82;;;2.95;;
41687;SDS011;27371;42.686;23.362;2023-03-01T16:00:51;5.50;;;2.40;;
41687;SDS011;27371;42.686;23.362;2023-03-01T16:03:21;5.40;;;2.53;;
41687;SDS011;27371;42.686;23.362;2023-03-01T16:05:48;5.85;;;2.50;;
41687;SDS011;27371;42.686;23.362;2023-03-01T16:08:15;5.07;;;2.55;;
41687;SDS011;27371;42.686;23.362;2023-03-01T16:10:41;5.93;;;2.67;;
41687;SDS011;27371;42.686;23.362;2023-03-01T16:13:09;4.40;;;2.20;;
41687;SDS011;27371;42.686;23.362;2023-03-01T16:15:36;4.75;;;2.60;;
41687;SDS011;27371;42.686;23.362;2023-03-01T16:18:03;6.13;;;3.35;;
41687;SDS011;27371;42.686;23.362;2023-03-01T16:20:30;5.93;;;2.97;;
41687;SDS011;27371;42.686;23.362;2023-03-01T16:23:03;8.02;;;3.00;;
41687;SDS011;27371;42.686;23.362;2023-03-01T16:25:31;5.28;;;3.15;;
41687;SDS011;27371;42.686;23.362;2023-03-01T16:27:57;6.53;;;2.60;;
41687;SDS011;27371;42.686;23.362;2023-03-01T16:30:26;7.22;;;3.00;;
41687;SDS011;27371;42.686;23.362;2023-03-01T16:32:51;6.40;;;2.67;;
41687;SDS011;27371;42.686;23.362;2023-03-01T16:35:19;7.28;;;3.08;;
41687;SDS011;27371;42.686;23.362;2023-03-01T16:37:45;10.57;;;4.50;;
41687;SDS011;27371;42.686;23.362;2023-03-01T16:40:19;13.48;;;4.55;;
41687;SDS011;27371;42.686;23.362;2023-03-01T16:42:46;8.47;;;3.20;;
41687;SDS011;27371;42.686;23.362;2023-03-01T16:45:13;5.43;;;2.88;;
41687;SDS011;27371;42.686;23.362;2023-03-01T16:47:38;5.60;;;2.63;;
41687;SDS011;27371;42.686;23.362;2023-03-01T16:50:04;6.20;;;3.15;;
41687;SDS011;27371;42.686;23.362;2023-03-01T16:52:30;7.22;;;3.08;;
41687;SDS011;27371;42.686;23.362;2023-03-01T16:54:56;6.65;;;3.78;;
41687;SDS011;27371;42.686;23.362;2023-03-01T16:57:22;7.82;;;3.53;;
41687;SDS011;27371;42.686;23.362;2023-03-01T16:59:50;6.03;;;3.80;;
41687;SDS011;27371;42.686;23.362;2023-03-01T17:02:18;7.15;;;4.43;;
41687;SDS011;27371;42.686;23.362;2023-03-01T17:04:45;10.18;;;4.30;;
41687;SDS011;27371;42.686;23.362;2023-03-01T17:07:16;9.30;;;4.47;;